Time;durP1;ratioP1;P1;durP2;ratioP2;P2;SDS_P1;SDS_P2;PMS_P1;PMS_P2;Temp;Humidity;BMP_temperature;BMP_pressure;BME280_temperature;BME280_humidity;BME280_pressure;Samples;Min_cycle;Max_cycle;Signal;HPM_P1;HPM_P2
2021/12/29 00:00:50;;;;;;;14.93;7.38;;;-10.60;24.70;;;-11.12;88.18;99387.19;4982363;28;119210;-79
2021/12/29 00:03:19;;;;;;;14.93;7.40;;;-10.50;24.20;;;-11.09;87.87;99386.84;5004716;28;120127;-79
2021/12/29 00:05:47;;;;;;;18.20;8.18;;;-10.50;23.90;;;-11.16;87.87;99389.31;5004975;28;129827;-78
2021/12/29 00:08:16;;;;;;;17.02;7.60;;;-10.50;23.10;;;-11.17;88.04;99392.13;5005800;28;129128;-79
2021/12/29 00:10:55;;;;;;;14.95;7.88;;;-10.50;22.10;;;-11.13;87.24;99390.78;5002819;28;119721;-79
2021/12/29 00:13:25;;;;;;;19.70;7.88;;;-10.50;22.80;;;-11.16;88.13;99399.00;4990323;28;119419;-79
2021/12/29 00:15:57;;;;;;;21.02;8.15;;;-10.50;21.20;;;-11.15;87.59;99398.03;5004866;28;129783;-79
2021/12/29 00:18:27;;;;;;;15.63;7.35;;;-10.50;20.70;;;-11.05;86.71;99393.34;4998676;28;129522;-79
2021/12/29 00:20:57;;;;;;;16.67;7.18;;;-10.40;20.40;;;-11.09;87.02;99397.31;4985932;28;122011;-78
2021/12/29 00:23:26;;;;;;;14.75;7.18;;;-10.40;19.40;;;-11.05;86.97;99401.22;5004616;28;122263;-80
2021/12/29 00:25:57;;;;;;;14.98;6.68;;;-10.30;19.00;;;-10.98;86.37;99393.47;5023677;28;129404;-80
2021/12/29 00:28:25;;;;;;;14.82;7.18;;;-10.30;18.60;;;-11.00;86.26;99391.00;4975501;28;128866;-78
2021/12/29 00:30:54;;;;;;;15.68;7.47;;;-10.30;18.60;;;-10.95;86.21;99393.94;5003691;28;119567;-81
2021/12/29 00:33:42;;;;;;;19.38;7.28;;;-10.30;18.70;;;-11.09;86.44;99392.88;4998955;28;118296;-80
2021/12/29 00:36:28;;;;;;;;;;;-10.40;18.30;;;-11.09;86.28;99395.50;5002931;28;130400;-80
2021/12/29 00:39:26;;;;;;;17.98;7.25;;;-10.40;18.30;;;-11.08;86.33;99385.84;4955039;28;129809;-80
2021/12/29 00:42:15;;;;;;;15.82;7.35;;;-10.50;18.80;;;-11.08;86.51;99393.69;5001034;28;119553;-78
2021/12/29 00:45:11;;;;;;;18.55;7.93;;;-10.50;20.20;;;-10.98;86.11;99399.53;4984009;28;119314;-79
2021/12/29 00:47:51;;;;;;;18.70;8.25;;;-10.50;20.00;;;-11.07;86.18;99395.34;5003005;28;130213;-79
2021/12/29 00:50:20;;;;;;;17.48;7.18;;;-10.30;19.80;;;-11.09;86.44;99390.28;5003608;28;129657;-79
2021/12/29 00:52:55;;;;;;;16.17;7.45;;;-10.40;18.70;;;-11.12;86.19;99389.81;4989863;28;119705;-79
2021/12/29 00:55:24;;;;;;;13.60;6.95;;;-10.50;19.30;;;-11.11;86.05;99383.56;4989415;28;118919;-79
2021/12/29 00:58:07;;;;;;;16.13;7.05;;;-10.40;19.00;;;-11.12;85.72;99377.50;4989464;28;128996;-79
2021/12/29 01:00:40;;;;;;;14.95;7.00;;;-10.40;18.40;;;-11.08;85.83;99372.72;4988486;28;129359;-78
2021/12/29 01:03:11;;;;;;;15.60;6.45;;;-10.40;17.80;;;-11.03;85.48;99375.63;4989750;28;118622;-79
2021/12/29 01:05:41;;;;;;;15.57;6.95;;;-10.20;17.60;;;-11.01;85.01;99368.44;4997102;28;119714;-78
2021/12/29 01:08:20;;;;;;;14.10;6.47;;;-10.40;16.80;;;-10.96;84.87;99371.34;5004145;28;129184;-79
2021/12/29 01:10:50;;;;;;;16.15;6.53;;;-10.30;16.90;;;-10.97;85.01;99369.69;4997819;28;129632;-78
2021/12/29 01:13:29;;;;;;;14.50;6.38;;;-10.30;16.40;;;-10.90;85.27;99373.25;4971871;28;121102;-80
2021/12/29 01:16:16;;;;;;;13.25;6.47;;;-10.40;16.70;;;-10.92;84.32;99367.38;4988012;28;121274;-80
2021/12/29 01:18:45;;;;;;;15.48;6.75;;;-10.40;16.80;;;-10.83;84.03;99369.94;5002385;28;128768;-79
2021/12/29 01:21:14;;;;;;;15.77;6.50;;;-10.30;16.90;;;-10.91;83.99;99369.00;4985832;28;129680;-78
2021/12/29 01:23:43;;;;;;;13.18;6.55;;;-10.40;16.50;;;-10.94;84.61;99353.63;4987179;28;118773;-78
2021/12/29 01:26:11;;;;;;;14.80;7.07;;;-10.50;16.80;;;-10.89;84.57;99360.94;5001048;28;119413;-79
2021/12/29 01:28:41;;;;;;;16.27;7.00;;;-10.50;17.10;;;-10.94;84.29;99350.19;5003063;28;129598;-79
2021/12/29 01:31:10;;;;;;;15.55;6.38;;;-10.50;17.40;;;-10.92;84.54;99356.91;4973745;28;129479;-79
2021/12/29 01:33:39;;;;;;;13.43;6.18;;;-10.40;16.90;;;-10.87;83.85;99345.88;4988528;28;118790;-80
2021/12/29 01:36:07;;;;;;;12.85;6.30;;;-10.50;16.90;;;-10.85;83.63;99352.56;5003529;28;119788;-78
2021/12/29 01:38:37;;;;;;;16.52;6.57;;;-10.50;16.90;;;-10.83;84.01;99344.53;4984651;28;129844;-78
2021/12/29 01:41:06;;;;;;;13.60;6.43;;;-10.40;16.90;;;-10.88;84.06;99345.03;5000663;28;129518;-79
2021/12/29 01:43:35;;;;;;;10.95;5.38;;;-10.40;16.80;;;-10.99;83.82;99340.22;4987103;28;119049;-79
2021/12/29 01:46:05;;;;;;;16.27;6.78;;;-10.40;15.60;;;-10.87;84.03;99338.00;5003722;28;120001;-79
2021/12/29 01:48:33;;;;;;;13.48;6.25;;;-10.30;13.70;;;-10.93;83.55;99339.53;4988352;28;128956;-79
2021/12/29 01:51:02;;;;;;;9.52;5.45;;;-10.30;13.00;;;-10.95;82.75;99345.91;5002862;28;129469;-78
2021/12/29 01:53:33;;;;;;;16.45;6.88;;;-10.40;13.20;;;-10.87;83.02;99341.44;4986663;28;120825;-78
2021/12/29 01:56:03;;;;;;;12.23;6.45;;;-10.40;13.20;;;-10.81;83.00;99346.97;4970510;28;118718;-78
2021/12/29 01:58:32;;;;;;;14.82;6.32;;;-10.40;13.20;;;-10.79;82.81;99350.25;4977068;28;129235;-76
2021/12/29 02:01:02;;;;;;;10.23;4.97;;;-10.40;13.00;;;-10.86;82.73;99340.47;4987624;28;129572;-78
2021/12/29 02:03:32;;;;;;;12.90;5.80;;;-10.30;12.50;;;-10.88;82.66;99336.38;4986612;28;121106;-79
2021/12/29 02:06:00;;;;;;;12.27;5.18;;;-10.20;11.30;;;-10.82;82.88;99327.00;5004985;28;121314;-79
2021/12/29 02:08:29;;;;;;;11.75;6.18;;;-10.30;10.70;;;-10.89;82.55;99330.31;5002074;28;130225;-79
2021/12/29 02:10:59;;;;;;;13.27;6.32;;;-10.30;10.40;;;-10.82;81.94;99329.63;4978535;28;129399;-79
2021/12/29 02:13:28;;;;;;;15.25;6.10;;;-10.20;10.50;;;-10.75;81.61;99335.78;5000351;28;119597;-79
2021/12/29 02:15:57;;;;;;;12.65;6.20;;;-10.30;9.50;;;-10.80;82.01;99335.50;4987775;28;118429;-79
2021/12/29 02:18:27;;;;;;;12.50;5.47;;;-10.40;9.70;;;-10.82;81.71;99327.81;5002318;28;130284;-79
2021/12/29 02:20:57;;;;;;;13.90;5.40;;;-10.40;10.30;;;-10.94;82.09;99322.16;4986899;28;128860;-80
2021/12/29 02:23:32;;;;;;;13.55;7.15;;;-10.30;10.90;;;-10.93;81.79;99313.31;4985585;28;119311;-80
2021/12/29 02:26:01;;;;;;;11.40;5.15;;;-10.30;10.90;;;-10.89;81.68;99304.09;4985457;28;119100;-80
2021/12/29 02:28:35;;;;;;;12.95;5.63;;;-10.40;11.30;;;-10.91;82.08;99300.81;4983079;28;129051;-78
2021/12/29 02:31:04;;;;;;;11.77;6.45;;;-10.50;10.40;;;-10.88;82.05;99305.72;4998998;28;129828;-78
2021/12/29 02:33:34;;;;;;;17.15;6.85;;;-10.50;10.60;;;-10.88;82.10;99300.47;4979205;28;118732;-80
2021/12/29 02:36:06;;;;;;;9.38;5.97;;;-10.50;11.30;;;-10.87;82.06;99307.34;4988952;28;118881;-79
2021/12/29 02:38:44;;;;;;;13.18;6.15;;;-10.60;11.50;;;-10.90;81.78;99297.22;4988514;28;129272;-78
2021/12/29 02:41:13;;;;;;;16.77;7.30;;;-10.70;12.10;;;-11.01;82.49;99297.66;4971726;28;128653;-78
2021/12/29 02:43:41;;;;;;;14.73;6.57;;;-10.70;13.10;;;-10.96;82.38;99294.50;5004760;28;118656;-78
2021/12/29 02:46:14;;;;;;;14.85;6.78;;;-10.80;13.60;;;-10.95;82.31;99294.34;5002973;28;119823;-78
2021/12/29 02:48:50;;;;;;;16.48;7.45;;;-10.90;13.90;;;-11.07;82.48;99286.06;4994227;28;129463;-79
2021/12/29 02:51:20;;;;;;;18.23;7.93;;;-11.00;15.20;;;-11.24;82.74;99290.59;5002141;28;129165;-78
2021/12/29 02:53:49;;;;;;;19.65;8.18;;;-11.00;15.80;;;-11.18;82.96;99289.09;4995535;28;122459;-80
2021/12/29 02:56:19;;;;;;;18.80;8.35;;;-11.00;16.30;;;-11.14;83.47;99292.19;4987959;28;120872;-79
2021/12/29 02:58:47;;;;;;;19.25;8.73;;;-11.00;16.20;;;-11.22;82.93;99287.81;4971212;28;129246;-79
2021/12/29 03:01:18;;;;;;;15.00;7.13;;;-11.10;16.80;;;-11.18;82.96;99304.03;4987422;28;129806;-79
2021/12/29 03:03:46;;;;;;;17.98;7.50;;;-11.00;16.20;;;-11.18;82.69;99293.53;4996094;28;119087;-79
2021/12/29 03:06:16;;;;;;;16.75;8.35;;;-11.00;16.40;;;-11.18;82.23;99289.09;4997849;28;119692;-79
2021/12/29 03:08:46;;;;;;;18.83;6.70;;;-11.20;16.50;;;-11.30;83.04;99286.06;4986982;28;128895;-79
2021/12/29 03:11:16;;;;;;;14.50;7.22;;;-11.20;17.10;;;-11.43;83.13;99285.84;4974580;28;129621;-79
2021/12/29 03:13:45;;;;;;;13.30;6.82;;;-11.10;16.10;;;-11.34;82.91;99284.81;4996253;28;119756;-78
2021/12/29 03:16:13;;;;;;;15.73;7.75;;;-11.10;15.60;;;-11.33;82.97;99281.19;5002271;28;119381;-78
2021/12/29 03:18:43;;;;;;;16.58;6.93;;;-11.10;16.00;;;-11.34;82.71;99276.94;4979294;28;128542;-79
2021/12/29 03:21:13;;;;;;;17.92;7.35;;;-11.20;15.80;;;-11.36;82.88;99281.53;4987053;28;129309;-79
2021/12/29 03:23:42;;;;;;;13.85;6.45;;;-11.20;15.70;;;-11.44;83.07;99269.28;5003271;28;119434;-79
2021/12/29 03:26:12;;;;;;;12.43;5.88;;;-11.20;15.90;;;-11.51;82.61;99267.56;5006191;28;119297;-79
2021/12/29 03:28:40;;;;;;;13.60;6.43;;;-11.20;16.00;;;-11.46;82.99;99265.25;5005510;28;129709;-78
2021/12/29 03:31:14;;;;;;;14.48;7.05;;;-11.30;15.80;;;-11.43;83.01;99262.28;5000669;28;129550;-79
2021/12/29 03:33:44;;;;;;;13.02;6.50;;;-11.20;15.90;;;-11.44;82.64;99258.81;4984044;28;119102;-78
2021/12/29 03:36:14;;;;;;;11.18;6.05;;;-11.20;15.80;;;-11.50;82.97;99256.09;4990830;28;119030;-79
2021/12/29 03:38:44;;;;;;;15.23;6.53;;;-11.30;15.70;;;-11.47;82.97;99250.50;4998225;28;130482;-80
2021/12/29 03:41:19;;;;;;;13.50;6.82;;;-11.30;16.00;;;-11.47;83.01;99243.47;4990273;28;128871;-78
2021/12/29 03:43:48;;;;;;;13.45;6.50;;;-11.30;15.90;;;-11.47;82.80;99248.69;4996712;28;123152;-78
2021/12/29 03:46:19;;;;;;;18.65;6.05;;;-11.40;16.30;;;-11.52;83.03;99252.84;5005188;28;121792;-78
2021/12/29 03:48:49;;;;;;;15.45;6.60;;;-11.40;16.70;;;-11.63;83.29;99243.59;5004791;28;129807;-78
2021/12/29 03:51:18;;;;;;;14.00;6.97;;;-11.40;17.90;;;-11.66;83.49;99255.22;4989333;28;129693;-79
2021/12/29 03:53:46;;;;;;;14.15;6.50;;;-11.40;17.00;;;-11.54;83.32;99246.94;4990664;28;119330;-78
2021/12/29 03:56:15;;;;;;;12.50;5.78;;;-11.30;16.50;;;-11.52;82.99;99243.19;5004715;28;119421;-79
2021/12/29 03:58:45;;;;;;;15.23;7.05;;;-11.30;16.20;;;-11.50;82.97;99227.28;5001315;28;129845;-79
2021/12/29 04:01:16;;;;;;;14.45;6.03;;;-11.30;16.30;;;-11.59;83.09;99227.34;5005712;28;129034;-80
2021/12/29 04:03:46;;;;;;;12.25;6.45;;;-11.40;16.40;;;-11.59;82.96;99224.72;4982488;28;119323;-79
2021/12/29 04:06:18;;;;;;;14.90;6.43;;;-11.40;15.90;;;-11.61;82.86;99213.63;4997878;28;119748;-79
2021/12/29 04:08:47;;;;;;;12.60;6.00;;;-11.40;16.20;;;-11.66;83.11;99210.69;4986465;28;129799;-79
2021/12/29 04:11:16;;;;;;;12.55;6.70;;;-11.40;16.30;;;-11.62;83.45;99213.81;4971305;28;128941;-79
2021/12/29 04:13:47;;;;;;;15.38;8.02;;;-11.40;16.10;;;-11.61;82.83;99216.25;4983497;28;118624;-79
2021/12/29 04:16:17;;;;;;;13.00;6.32;;;-11.40;16.30;;;-11.53;82.62;99201.44;5004338;28;119216;-79
2021/12/29 04:19:06;;;;;;;15.02;6.72;;;-11.40;16.20;;;-11.52;82.45;99203.88;5004424;28;129604;-78
2021/12/29 04:21:36;;;;;;;12.18;6.10;;;-11.40;16.20;;;-11.55;82.51;99192.97;5003953;28;130433;-76
2021/12/29 04:24:09;;;;;;;13.20;5.95;;;-11.40;16.00;;;-11.54;82.25;99197.19;4995965;28;119508;-76
2021/12/29 04:26:39;;;;;;;12.40;6.60;;;-11.40;16.20;;;-11.65;82.57;99186.16;4986858;28;118871;-75
2021/12/29 04:29:13;;;;;;;15.18;6.47;;;-11.30;15.20;;;-11.60;82.37;99191.66;5022283;28;129579;-76
2021/12/29 04:31:42;;;;;;;14.70;6.47;;;-11.20;14.60;;;-11.55;81.81;99187.72;4988688;28;128874;-76
2021/12/29 04:34:12;;;;;;;15.73;6.45;;;-11.30;14.00;;;-11.62;81.83;99177.94;4981213;28;120898;-76
2021/12/29 04:36:40;;;;;;;13.73;6.65;;;-11.30;13.60;;;-11.52;81.82;99182.94;4997936;28;122582;-76
2021/12/29 04:39:09;;;;;;;15.77;6.68;;;-11.20;12.70;;;-11.57;81.46;99177.41;5001711;28;130664;-77
2021/12/29 04:41:38;;;;;;;12.57;6.53;;;-11.20;12.20;;;-11.59;81.44;99177.59;5003236;28;129632;-76
2021/12/29 04:44:08;;;;;;;14.13;6.88;;;-11.20;11.80;;;-11.63;82.08;99178.13;5003580;28;119930;-75
2021/12/29 04:46:39;;;;;;;12.85;6.00;;;-11.20;11.50;;;-11.58;81.52;99179.19;5020390;28;119010;-77
2021/12/29 04:49:12;;;;;;;12.30;6.65;;;-11.30;11.70;;;-11.54;81.97;99178.84;4999466;28;129779;-77
2021/12/29 04:51:48;;;;;;;13.85;6.70;;;-11.30;12.00;;;-11.66;82.42;99171.44;5002978;28;128868;-78
2021/12/29 04:54:17;;;;;;;12.65;6.35;;;-11.30;12.60;;;-11.63;81.95;99171.06;5004233;28;120047;-78
2021/12/29 04:56:45;;;;;;;16.63;7.43;;;-11.30;12.50;;;-11.62;82.43;99167.47;5004203;28;119632;-78
2021/12/29 04:59:16;;;;;;;14.77;7.35;;;-11.30;12.50;;;-11.62;82.38;99177.94;4984576;28;129989;-78
2021/12/29 05:01:45;;;;;;;17.95;7.60;;;-11.40;12.60;;;-11.65;82.38;99170.44;5006221;28;129707;-79
2021/12/29 05:04:20;;;;;;;14.02;6.47;;;-11.40;13.50;;;-11.68;82.76;99162.13;5007135;28;119956;-78
2021/12/29 05:09:35;;;;;;;13.97;5.97;;;-11.50;14.20;;;-11.57;82.54;99154.66;5005222;28;129792;-80
2021/12/29 05:12:05;;;;;;;16.23;7.88;;;-11.50;15.50;;;-11.67;83.61;99164.56;5006023;28;129566;-80
2021/12/29 05:14:44;;;;;;;14.80;8.00;;;-11.50;16.50;;;-11.69;83.29;99155.25;5004575;28;119685;-78
2021/12/29 05:17:13;;;;;;;17.23;7.90;;;-11.50;16.70;;;-11.76;84.14;99157.78;4988605;28;118454;-78
2021/12/29 05:19:43;;;;;;;18.20;8.05;;;-11.50;17.40;;;-11.73;84.27;99160.03;4988441;28;129719;-78
2021/12/29 05:22:19;;;;;;;15.20;7.85;;;-11.50;17.20;;;-11.81;84.18;99157.47;4988698;28;128487;-78
2021/12/29 05:24:48;;;;;;;16.00;8.57;;;-11.50;18.90;;;-11.75;85.09;99151.53;4987858;28;121509;-79
2021/12/29 05:27:17;;;;;;;18.05;9.40;;;-11.30;18.80;;;-11.71;85.11;99155.44;5004225;28;121321;-78
2021/12/29 05:29:46;;;;;;;16.70;9.23;;;-11.40;19.80;;;-11.62;85.09;99159.63;4989303;28;130064;-79
2021/12/29 05:32:16;;;;;;;15.20;7.10;;;-11.50;19.80;;;-11.72;85.84;99161.66;4989283;28;128817;-78
2021/12/29 05:34:44;;;;;;;13.95;7.85;;;-11.40;22.70;;;-11.68;86.57;99162.94;5004458;28;119476;-79
2021/12/29 05:37:14;;;;;;;17.85;7.60;;;-11.40;22.40;;;-11.59;86.25;99161.88;5006243;28;119967;-79
2021/12/29 05:39:43;;;;;;;13.63;7.13;;;-11.50;23.20;;;-11.60;86.58;99155.00;5019335;28;130527;-79
2021/12/29 05:42:13;;;;;;;16.08;7.70;;;-11.50;24.60;;;-11.57;87.33;99153.84;4989226;28;129659;-79
2021/12/29 05:44:43;;;;;;;19.40;8.45;;;-11.50;25.20;;;-11.50;87.43;99153.94;4971762;28;119056;-79
2021/12/29 05:47:13;;;;;;;17.13;7.88;;;-11.30;28.50;;;-11.45;88.27;99157.69;4986669;28;118582;-79
2021/12/29 05:49:42;;;;;;;21.52;7.93;;;-11.30;29.10;;;-11.39;88.60;99145.66;4988202;28;129635;-78
2021/12/29 05:52:11;;;;;;;19.67;8.20;;;-11.10;29.70;;;-11.31;88.24;99140.38;4988887;28;130066;-79
2021/12/29 05:54:39;;;;;;;17.10;8.57;;;-11.10;31.10;;;-11.31;88.67;99142.97;4989244;28;118682;-78
2021/12/29 05:57:08;;;;;;;18.48;8.50;;;-11.20;32.40;;;-11.49;89.58;99145.13;4989506;28;119022;-79
2021/12/29 05:59:39;;;;;;;17.50;7.85;;;-11.20;36.20;;;-11.42;89.91;99146.00;5005223;28;129355;-79
2021/12/29 06:02:08;;;;;;;17.80;8.00;;;-11.10;35.10;;;-11.32;90.02;99141.34;5004253;28;130063;-78
2021/12/29 06:04:38;;;;;;;17.70;8.70;;;-11.00;36.70;;;-11.28;90.52;99137.38;5003196;28;120168;-78
2021/12/29 06:07:09;;;;;;;17.55;7.93;;;-10.90;38.70;;;-11.23;91.09;99132.41;5002124;28;120044;-78
2021/12/29 06:09:39;;;;;;;17.90;8.27;;;-10.80;38.10;;;-11.21;90.94;99133.03;5004664;28;130737;-78
2021/12/29 06:12:09;;;;;;;19.50;8.07;;;-10.80;39.20;;;-11.43;91.27;99131.31;4988610;28;129059;-78
2021/12/29 06:14:44;;;;;;;19.02;9.18;;;-10.80;40.00;;;-11.32;91.28;99120.38;4988099;28;121109;-79
2021/12/29 06:17:13;;;;;;;17.20;9.40;;;-10.80;38.80;;;-11.25;91.15;99121.31;4988945;28;121073;-78
2021/12/29 06:19:43;;;;;;;17.80;9.15;;;-10.90;37.80;;;-11.24;91.64;99128.16;5003159;28;129026;-79
2021/12/29 06:22:16;;;;;;;22.05;9.05;;;-10.90;39.00;;;-11.22;91.78;99126.19;5005291;28;128847;-79
2021/12/29 06:24:51;;;;;;;19.35;9.00;;;-10.90;39.60;;;-11.17;90.72;99123.03;5003632;28;119607;-79
2021/12/29 06:27:21;;;;;;;18.92;9.57;;;-11.00;38.80;;;-11.35;91.11;99125.97;4989213;28;119062;-77
2021/12/29 06:29:52;;;;;;;19.83;8.43;;;-11.00;41.40;;;-11.24;91.09;99117.69;5005172;28;130341;-77
2021/12/29 06:32:21;;;;;;;18.75;8.82;;;-11.00;42.00;;;-11.36;91.21;99119.09;4988942;28;128881;-77
2021/12/29 06:34:51;;;;;;;17.98;7.60;;;-11.00;42.40;;;-11.28;91.47;99121.66;5003390;28;119288;-77
2021/12/29 06:37:21;;;;;;;20.95;8.65;;;-10.90;41.70;;;-11.18;90.93;99117.97;5003513;28;119255;-77
2021/12/29 06:39:50;;;;;;;22.13;9.43;;;-11.00;41.00;;;-11.25;90.45;99116.06;5001705;28;129496;-77
2021/12/29 06:42:20;;;;;;;19.92;8.70;;;-11.00;41.10;;;-11.12;90.23;99114.63;5003043;28;130016;-77
2021/12/29 06:44:49;;;;;;;18.08;8.75;;;-11.00;40.40;;;-11.09;90.15;99114.28;4994126;28;118460;-77
2021/12/29 06:47:18;;;;;;;23.60;9.25;;;-11.00;40.50;;;-11.05;89.53;99126.81;5003298;28;119985;-77
2021/12/29 06:49:52;;;;;;;16.35;8.80;;;-11.00;40.40;;;-11.10;89.79;99123.13;5020517;28;129304;-77
2021/12/29 06:52:20;;;;;;;20.75;8.73;;;-11.00;40.20;;;-10.96;89.18;99119.69;4971511;28;128554;-77
2021/12/29 06:54:49;;;;;;;20.70;8.77;;;-11.00;40.00;;;-10.91;89.10;99127.00;5020417;28;119339;-77
2021/12/29 06:57:18;;;;;;;18.20;8.75;;;-11.00;39.80;;;-10.90;88.82;99133.88;5005213;28;119839;-77
2021/12/29 06:59:46;;;;;;;20.08;8.77;;;-11.00;39.50;;;-10.91;88.59;99143.53;5007926;28;129893;-76
2021/12/29 07:02:15;;;;;;;22.63;9.63;;;-10.90;39.50;;;-10.91;88.76;99137.47;4991491;28;128910;-77
2021/12/29 07:04:46;;;;;;;24.40;10.98;;;-10.90;38.90;;;-10.95;88.64;99147.53;5004076;28;122229;-77
2021/12/29 07:07:16;;;;;;;17.73;8.40;;;-10.80;37.90;;;-10.82;88.28;99146.09;4988227;28;122054;-77
2021/12/29 07:09:45;;;;;;;16.50;8.95;;;-10.60;37.10;;;-10.77;87.73;99149.78;5006299;28;129617;-79
2021/12/29 07:12:15;;;;;;;17.17;8.60;;;-10.80;35.60;;;-10.73;87.45;99150.25;5005108;28;129504;-76
2021/12/29 07:14:43;;;;;;;16.67;8.43;;;-10.70;34.50;;;-10.72;87.16;99146.59;5025099;28;118549;-76
2021/12/29 07:17:12;;;;;;;23.15;9.00;;;-10.80;33.40;;;-10.72;86.77;99157.09;5008221;28;119855;-76
2021/12/29 07:19:42;;;;;;;18.63;8.00;;;-10.80;31.80;;;-10.56;86.18;99162.16;5005434;28;129848;-76
2021/12/29 07:22:10;;;;;;;20.42;9.23;;;-10.80;31.00;;;-10.62;85.52;99162.88;4992880;28;128906;-76
2021/12/29 07:24:40;;;;;;;21.48;10.75;;;-10.70;30.10;;;-10.66;85.93;99166.84;4996183;28;118288;-80
2021/12/29 07:27:09;;;;;;;20.88;9.13;;;-10.80;29.40;;;-10.75;85.81;99157.44;5009697;28;118954;-75
2021/12/29 07:29:38;;;;;;;20.85;9.77;;;-10.70;28.90;;;-10.53;85.61;99161.00;4987688;28;130954;-76
2021/12/29 07:32:08;;;;;;;26.92;10.10;;;-10.80;28.30;;;-10.75;85.00;99165.31;5003481;28;129616;-77
2021/12/29 07:34:37;;;;;;;19.02;9.30;;;-10.70;25.60;;;-10.52;84.55;99168.66;4990567;28;118594;-77
2021/12/29 07:37:06;;;;;;;18.70;9.10;;;-10.70;26.20;;;-10.39;84.24;99167.19;5005156;28;119219;-77
2021/12/29 07:39:36;;;;;;;21.60;8.70;;;-10.60;25.90;;;-10.35;83.61;99173.69;5006429;28;129056;-77
2021/12/29 07:42:07;;;;;;;18.25;8.27;;;-10.60;25.10;;;-10.32;83.64;99171.47;5004506;28;130055;-76
2021/12/29 07:44:45;;;;;;;20.88;9.80;;;-10.60;24.00;;;-10.07;82.50;99165.09;4988915;28;118789;-77
2021/12/29 07:47:14;;;;;;;15.90;8.18;;;-10.60;24.10;;;-9.94;82.29;99175.72;5006217;28;119088;-76
2021/12/29 07:49:43;;;;;;;21.27;9.43;;;-10.40;24.10;;;-9.86;81.39;99178.25;5002977;28;130348;-78
2021/12/29 07:52:14;;;;;;;20.48;9.25;;;-10.40;22.50;;;-9.77;81.59;99174.50;4988693;28;129394;-78
2021/12/29 07:54:43;;;;;;;23.02;9.52;;;-10.30;21.30;;;-9.62;80.46;99181.50;5005307;28;120881;-77
2021/12/29 07:57:13;;;;;;;19.65;9.52;;;-10.10;21.30;;;-9.46;80.33;99183.84;4986669;28;122089;-77
2021/12/29 07:59:42;;;;;;;17.05;8.98;;;-10.20;20.60;;;-9.44;79.10;99184.50;4989749;28;129721;-77
2021/12/29 08:02:18;;;;;;;17.98;9.40;;;-10.20;19.50;;;-9.43;79.25;99193.19;4986641;28;131224;-77
2021/12/29 08:04:48;;;;;;;17.92;8.60;;;-10.20;19.30;;;-9.27;79.18;99194.72;5021929;28;118471;-76
2021/12/29 08:07:17;;;;;;;22.98;9.90;;;-10.10;18.90;;;-9.48;78.21;99185.88;5001887;28;119316;-76
2021/12/29 08:09:45;;;;;;;19.98;9.75;;;-10.00;16.50;;;-9.07;77.95;99182.56;5021650;27;128866;-76
2021/12/29 08:12:15;;;;;;;22.13;9.68;;;-9.90;17.60;;;-8.87;77.18;99182.69;5004483;28;129765;-76
2021/12/29 08:14:45;;;;;;;19.33;9.75;;;-9.80;17.00;;;-8.89;76.51;99189.97;4986411;28;118427;-76
2021/12/29 08:17:14;;;;;;;15.52;9.52;;;-9.70;15.80;;;-8.76;76.64;99191.06;4990344;28;118915;-77
2021/12/29 08:19:43;;;;;;;22.10;10.25;;;-9.70;15.10;;;-8.59;76.05;99188.94;4988158;28;129910;-77
2021/12/29 08:22:12;;;;;;;18.92;10.55;;;-9.60;14.40;;;-8.65;76.54;99184.44;4988927;28;129504;-76
2021/12/29 08:24:40;;;;;;;21.17;9.38;;;-9.60;13.60;;;-8.61;76.00;99180.41;5003751;28;119891;-76
2021/12/29 08:27:10;;;;;;;17.00;9.25;;;-9.60;13.90;;;-8.47;75.88;99187.38;5003900;28;119325;-76
2021/12/29 08:29:41;;;;;;;18.77;8.40;;;-9.50;13.20;;;-8.49;76.08;99178.88;5012696;28;129943;-76
2021/12/29 08:32:10;;;;;;;17.65;8.60;;;-9.50;13.00;;;-8.70;75.49;99177.13;5003701;28;129836;-76
2021/12/29 08:34:38;;;;;;;13.90;8.32;;;-9.50;11.40;;;-8.56;75.51;99173.53;5009134;28;119764;-77
2021/12/29 08:37:07;;;;;;;17.38;9.23;;;-9.30;11.40;;;-8.21;75.27;99170.00;5025177;28;119619;-77
2021/12/29 08:39:38;;;;;;;20.63;9.75;;;-9.30;11.90;;;-8.10;74.72;99176.53;5009295;28;129520;-75
2021/12/29 08:42:46;;;;;;;18.98;10.70;;;-9.10;12.10;;;-8.07;74.08;99171.69;5023805;28;130120;-76
2021/12/29 08:45:26;;;;;;;23.33;10.57;;;-9.10;11.40;;;-8.02;74.46;99179.00;5026412;28;122118;-76
2021/12/29 08:47:58;;;;;;;19.38;10.00;;;-9.00;11.30;;;-7.74;74.32;99165.69;5024398;28;122062;-75
2021/12/29 08:50:32;;;;;;;18.20;9.77;;;-8.90;10.90;;;-7.86;72.93;99167.28;5023297;28;130459;-75
2021/12/29 08:53:06;;;;;;;22.85;11.23;;;-8.80;8.70;;;-7.81;73.99;99164.84;5023683;28;130032;-75
2021/12/29 08:55:37;;;;;;;21.00;10.45;;;-8.80;9.70;;;-7.52;73.79;99160.25;5023901;28;120680;-76
2021/12/29 08:58:06;;;;;;;22.42;11.95;;;-8.60;9.30;;;-7.23;72.90;99161.66;5006298;28;119271;-76
2021/12/29 09:00:37;;;;;;;21.42;10.77;;;-8.50;9.80;;;-6.98;72.21;99158.38;5008671;28;128905;-75
2021/12/29 09:03:06;;;;;;;22.33;11.85;;;-8.40;8.80;;;-6.99;71.61;99147.03;5026133;28;129223;-75
2021/12/29 09:05:36;;;;;;;21.05;11.32;;;-8.30;8.10;;;-6.87;71.79;99148.03;5023828;28;119435;-75
2021/12/29 09:08:06;;;;;;;19.85;10.00;;;-8.30;8.40;;;-6.62;71.14;99142.06;5009212;28;118969;-76
2021/12/29 09:10:35;;;;;;;23.35;10.15;;;-8.10;8.40;;;-6.53;70.93;99145.28;5025311;28;129509;-76
2021/12/29 09:13:04;;;;;;;22.75;10.32;;;-8.00;8.50;;;-6.44;71.10;99153.78;5018118;28;129471;-74
2021/12/29 09:15:35;;;;;;;22.38;10.07;;;-7.90;7.50;;;-6.35;70.39;99152.53;5005292;28;119368;-74
2021/12/29 09:18:04;;;;;;;22.60;10.30;;;-7.80;7.60;;;-6.28;69.93;99144.56;5003732;28;119596;-75
2021/12/29 09:20:33;;;;;;;21.42;9.63;;;-7.80;7.50;;;-6.18;69.79;99143.09;4988352;28;129229;-75
2021/12/29 09:23:06;;;;;;;20.58;10.80;;;-7.70;7.10;;;-6.30;70.34;99142.16;5005924;28;129884;-75
2021/12/29 09:25:36;;;;;;;22.38;11.00;;;-7.80;6.80;;;-6.02;69.87;99125.13;5005537;28;118597;-75
2021/12/29 09:28:08;;;;;;;18.38;9.98;;;-7.60;6.90;;;-6.19;70.33;99120.34;4989055;28;118988;-75
2021/12/29 09:30:41;;;;;;;19.50;9.95;;;-7.60;5.40;;;-6.00;70.00;99110.72;4988566;28;129519;-75
2021/12/29 09:33:10;;;;;;;18.70;9.85;;;-7.50;6.60;;;-6.26;70.73;99103.75;5002836;28;129818;-75
2021/12/29 09:35:40;;;;;;;15.75;8.93;;;-7.60;6.30;;;-6.19;70.61;99099.22;4987369;28;122017;-75
2021/12/29 09:38:10;;;;;;;18.88;8.52;;;-7.50;7.10;;;-6.48;72.43;99105.03;4988410;28;121619;-75
2021/12/29 09:40:40;;;;;;;17.55;9.02;;;-7.60;7.40;;;-6.38;72.41;99105.41;5004477;28;128566;-75
2021/12/29 09:43:10;;;;;;;19.52;9.85;;;-7.50;7.20;;;-6.05;71.78;99093.84;5003660;28;129879;-75
2021/12/29 09:45:42;;;;;;;14.43;8.15;;;-7.40;8.10;;;-5.89;70.77;99097.78;5002544;28;120235;-74
2021/12/29 09:48:11;;;;;;;21.10;8.52;;;-7.30;7.90;;;-6.05;71.52;99089.38;5003235;28;119237;-75
2021/12/29 09:50:40;;;;;;;15.68;8.55;;;-7.30;6.40;;;-6.15;71.78;99095.13;4987869;28;130234;-75
2021/12/29 09:53:09;;;;;;;17.08;9.57;;;-7.30;5.90;;;-5.92;71.16;99093.75;5004938;28;130533;-76
2021/12/29 09:55:39;;;;;;;19.52;9.48;;;-7.30;6.60;;;-5.89;71.03;99088.03;5002946;28;119739;-76
2021/12/29 09:58:08;;;;;;;18.58;9.35;;;-7.20;6.20;;;-5.78;70.51;99090.00;5002369;28;119608;-75
2021/12/29 10:00:41;;;;;;;19.45;9.73;;;-7.10;6.40;;;-5.70;70.10;99080.16;4986906;28;129431;-75
2021/12/29 10:03:13;;;;;;;18.65;9.32;;;-7.20;6.50;;;-5.63;70.12;99076.44;5002899;28;130091;-77
2021/12/29 10:05:45;;;;;;;18.55;10.02;;;-7.00;5.70;;;-5.59;70.18;99084.75;5004822;28;119302;-76
2021/12/29 10:08:18;;;;;;;16.73;8.70;;;-7.00;5.40;;;-5.94;70.46;99087.84;4980617;28;119631;-76
2021/12/29 10:10:51;;;;;;;21.00;9.55;;;-7.10;5.30;;;-6.12;71.11;99078.06;4984283;28;129114;-77
2021/12/29 10:13:20;;;;;;;18.48;9.50;;;-7.20;5.30;;;-5.93;71.59;99078.91;4984411;28;128601;-79
2021/12/29 10:15:57;;;;;;;18.17;9.30;;;-7.10;6.60;;;-6.33;72.71;99069.44;4981574;28;119767;-76